sensor_id;sensor_type;location;lat;lon;timestamp;pressure;altitude;pressure_sealevel;temperature;humidity
6668;BME280;3370;47.712;9.082;2023-01-28T00:00:51;97424.63;;;-0.23;85.17
6668;BME280;3370;47.712;9.082;2023-01-28T00:03:17;97421.22;;;-0.33;85.75
6668;BME280;3370;47.712;9.082;2023-01-28T00:05:43;97411.97;;;-0.34;85.65
6668;BME280;3370;47.712;9.082;2023-01-28T00:08:09;97403.53;;;-0.36;85.63
6668;BME280;3370;47.712;9.082;2023-01-28T00:10:36;97411.97;;;-0.34;85.34
6668;BME280;3370;47.712;9.082;2023-01-28T00:13:05;97418.69;;;-0.36;85.12
6668;BME280;3370;47.712;9.082;2023-01-28T00:15:31;97406.88;;;-0.40;85.26
6668;BME280;3370;47.712;9.082;2023-01-28T00:17:57;97406.03;;;-0.39;85.28
6668;BME280;3370;47.712;9.082;2023-01-28T00:20:23;97404.34;;;-0.39;85.23
6668;BME280;3370;47.712;9.082;2023-01-28T00:22:49;97402.66;;;-0.41;85.20
6668;BME280;3370;47.712;9.082;2023-01-28T00:25:15;97398.41;;;-0.44;85.29
6668;BME280;3370;47.712;9.082;2023-01-28T00:27:41;97397.59;;;-0.44;85.03
6668;BME280;3370;47.712;9.082;2023-01-28T00:30:08;97394.28;;;-0.29;84.45
6668;BME280;3370;47.712;9.082;2023-01-28T00:32:34;97391.75;;;-0.32;84.38
6668;BME280;3370;47.712;9.082;2023-01-28T00:34:59;97397.63;;;-0.40;84.62
6668;BME280;3370;47.712;9.082;2023-01-28T00:37:25;97401.81;;;-0.40;84.82
6668;BME280;3370;47.712;9.082;2023-01-28T00:39:51;97401.81;;;-0.40;85.05
6668;BME280;3370;47.712;9.082;2023-01-28T00:42:17;97403.53;;;-0.36;84.68
6668;BME280;3370;47.712;9.082;2023-01-28T00:44:43;97409.41;;;-0.42;84.87
6668;BME280;3370;47.712;9.082;2023-01-28T00:47:09;97416.19;;;-0.34;84.33
6668;BME280;3370;47.712;9.082;2023-01-28T00:49:35;97413.63;;;-0.36;84.21
6668;BME280;3370;47.712;9.082;2023-01-28T00:52:00;97412.75;;;-0.43;83.97
6668;BME280;3370;47.712;9.082;2023-01-28T00:54:26;97414.44;;;-0.45;84.48
6668;BME280;3370;47.712;9.082;2023-01-28T00:56:52;97406.03;;;-0.41;84.15
6668;BME280;3370;47.712;9.082;2023-01-28T00:59:18;97413.59;;;-0.45;84.43
6668;BME280;3370;47.712;9.082;2023-01-28T01:01:45;97412.75;;;-0.43;84.55
6668;BME280;3370;47.712;9.082;2023-01-28T01:04:10;97416.97;;;-0.40;83.84
6668;BME280;3370;47.712;9.082;2023-01-28T01:06:39;97406.88;;;-0.42;84.23
6668;BME280;3370;47.712;9.082;2023-01-28T01:09:09;97418.66;;;-0.42;84.14
6668;BME280;3370;47.712;9.082;2023-01-28T01:11:35;97416.97;;;-0.40;84.37
6668;BME280;3370;47.712;9.082;2023-01-28T01:14:01;97420.34;;;-0.36;84.47
6668;BME280;3370;47.712;9.082;2023-01-28T01:16:31;97425.41;;;-0.41;85.13
6668;BME280;3370;47.712;9.082;2023-01-28T01:18:58;97417.78;;;-0.46;85.78
6668;BME280;3370;47.712;9.082;2023-01-28T01:21:27;97418.63;;;-0.44;86.84
6668;BME280;3370;47.712;9.082;2023-01-28T01:23:54;97417.81;;;-0.44;86.80
6668;BME280;3370;47.712;9.082;2023-01-28T01:26:20;97416.06;;;-0.53;87.50
6668;BME280;3370;47.712;9.082;2023-01-28T01:28:46;97416.06;;;-0.54;87.84
6668;BME280;3370;47.712;9.082;2023-01-28T01:31:15;97416.13;;;-0.47;88.66
6668;BME280;3370;47.712;9.082;2023-01-28T01:33:44;97414.41;;;-0.49;88.66
6668;BME280;3370;47.712;9.082;2023-01-28T01:36:12;97416.06;;;-0.59;89.36
6668;BME280;3370;47.712;9.082;2023-01-28T01:38:39;97415.22;;;-0.61;90.39
6668;BME280;3370;47.712;9.082;2023-01-28T01:41:06;97421.94;;;-0.59;90.66
6668;BME280;3370;47.712;9.082;2023-01-28T01:46:48;97421.09;;;-0.61;91.10
6668;BME280;3370;47.712;9.082;2023-01-28T01:49:24;97423.59;;;-0.67;91.48
6668;BME280;3370;47.712;9.082;2023-01-28T01:51:56;97421.91;;;-0.68;91.59
6668;BME280;3370;47.712;9.082;2023-01-28T01:54:27;97429.50;;;-0.65;91.55
6668;BME280;3370;47.712;9.082;2023-01-28T01:56:56;97430.31;;;-0.67;91.74
6668;BME280;3370;47.712;9.082;2023-01-28T01:59:29;97432.84;;;-0.67;91.76
6668;BME280;3370;47.712;9.082;2023-01-28T02:02:00;97432.03;;;-0.65;91.53
6668;BME280;3370;47.712;9.082;2023-01-28T02:04:31;97421.09;;;-0.61;91.39
6668;BME280;3370;47.712;9.082;2023-01-28T02:07:01;97426.16;;;-0.61;91.12
6668;BME280;3370;47.712;9.082;2023-01-28T02:09:30;97424.47;;;-0.63;91.07
6668;BME280;3370;47.712;9.082;2023-01-28T02:14:49;97435.44;;;-0.60;90.83
6668;BME280;3370;47.712;9.082;2023-01-28T02:17:16;97437.94;;;-0.63;90.87
6668;BME280;3370;47.712;9.082;2023-01-28T02:20:05;97440.47;;;-0.58;90.40
6668;BME280;3370;47.712;9.082;2023-01-28T02:26:28;97429.53;;;-0.57;89.88
6668;BME280;3370;47.712;9.082;2023-01-28T02:29:08;97440.44;;;-0.63;90.33
6668;BME280;3370;47.712;9.082;2023-01-28T02:31:50;97442.13;;;-0.65;90.66
6668;BME280;3370;47.712;9.082;2023-01-28T02:35:00;97440.44;;;-0.66;90.72
6668;BME280;3370;47.712;9.082;2023-01-28T02:40:42;97437.94;;;-0.63;89.97
6668;BME280;3370;47.712;9.082;2023-01-28T02:43:45;97438.72;;;-0.70;90.04
6668;BME280;3370;47.712;9.082;2023-01-28T02:46:21;97438.75;;;-0.67;90.24
6668;BME280;3370;47.712;9.082;2023-01-28T02:49:33;97433.75;;;-0.59;89.96
6668;BME280;3370;47.712;9.082;2023-01-28T02:55:34;97437.94;;;-0.63;89.45
6668;BME280;3370;47.712;9.082;2023-01-28T03:01:39;97435.44;;;-0.60;89.11
6668;BME280;3370;47.712;9.082;2023-01-28T03:04:20;97430.38;;;-0.56;88.63
6668;BME280;3370;47.712;9.082;2023-01-28T03:06:50;97434.56;;;-0.59;88.81
6668;BME280;3370;47.712;9.082;2023-01-28T03:09:19;97432.91;;;-0.56;88.57
6668;BME280;3370;47.712;9.082;2023-01-28T03:12:21;97438.78;;;-0.61;88.66
6668;BME280;3370;47.712;9.082;2023-01-28T03:21:06;97432.03;;;-0.65;88.66
6668;BME280;3370;47.712;9.082;2023-01-28T03:24:15;97432.00;;;-0.68;89.08
6668;BME280;3370;47.712;9.082;2023-01-28T03:29:56;97439.56;;;-0.69;89.83
6668;BME280;3370;47.712;9.082;2023-01-28T03:32:42;97442.06;;;-0.74;90.13
6668;BME280;3370;47.712;9.082;2023-01-28T03:35:32;97444.63;;;-0.66;90.61
6668;BME280;3370;47.712;9.082;2023-01-28T03:38:19;97447.16;;;-0.68;90.18
6668;BME280;3370;47.712;9.082;2023-01-28T03:40:59;97440.41;;;-0.72;89.99
6668;BME280;3370;47.712;9.082;2023-01-28T03:43:26;97448.81;;;-0.70;90.10
6668;BME280;3370;47.712;9.082;2023-01-28T03:45:53;97443.75;;;-0.73;90.42
6668;BME280;3370;47.712;9.082;2023-01-28T03:48:22;97453.06;;;-0.64;90.34
6668;BME280;3370;47.712;9.082;2023-01-28T03:50:49;97449.69;;;-0.66;89.98
6668;BME280;3370;47.712;9.082;2023-01-28T03:53:17;97443.00;;;-0.61;89.26
6668;BME280;3370;47.712;9.082;2023-01-28T03:55:45;97445.53;;;-0.56;88.97
6668;BME280;3370;47.712;9.082;2023-01-28T03:58:12;97448.06;;;-0.56;88.57
6668;BME280;3370;47.712;9.082;2023-01-28T04:00:39;97448.94;;;-0.51;88.73
6668;BME280;3370;47.712;9.082;2023-01-28T04:03:14;97447.22;;;-0.55;88.28
6668;BME280;3370;47.712;9.082;2023-01-28T04:05:56;97447.22;;;-0.55;88.13
6668;BME280;3370;47.712;9.082;2023-01-28T04:08:25;97450.56;;;-0.56;87.91
6668;BME280;3370;47.712;9.082;2023-01-28T04:10:51;97453.97;;;-0.57;87.94
6668;BME280;3370;47.712;9.082;2023-01-28T04:13:17;97453.09;;;-0.56;88.32
6668;BME280;3370;47.712;9.082;2023-01-28T04:15:43;97445.56;;;-0.50;87.76
6668;BME280;3370;47.712;9.082;2023-01-28T04:18:10;97452.28;;;-0.55;87.68
6668;BME280;3370;47.712;9.082;2023-01-28T04:20:37;97448.09;;;-0.52;87.75
6668;BME280;3370;47.712;9.082;2023-01-28T04:23:05;97448.94;;;-0.51;87.41
6668;BME280;3370;47.712;9.082;2023-01-28T04:25:32;97454.78;;;-0.57;87.88
6668;BME280;3370;47.712;9.082;2023-01-28T04:27:59;97452.25;;;-0.60;87.81
6668;BME280;3370;47.712;9.082;2023-01-28T04:30:25;97457.31;;;-0.59;88.13
6668;BME280;3370;47.712;9.082;2023-01-28T04:32:51;97454.78;;;-0.59;88.21
6668;BME280;3370;47.712;9.082;2023-01-28T04:35:17;97456.50;;;-0.51;87.22
6668;BME280;3370;47.712;9.082;2023-01-28T04:37:44;97455.63;;;-0.60;87.75
6668;BME280;3370;47.712;9.082;2023-01-28T04:40:12;97458.13;;;-0.58;87.65
6668;BME280;3370;47.712;9.082;2023-01-28T04:42:38;97454.81;;;-0.54;87.28
6668;BME280;3370;47.712;9.082;2023-01-28T04:45:05;97464.94;;;-0.52;87.21
6668;BME280;3370;47.712;9.082;2023-01-28T04:47:31;97461.53;;;-0.57;87.43
6668;BME280;3370;47.712;9.082;2023-01-28T04:49:57;97457.31;;;-0.59;87.53
6668;BME280;3370;47.712;9.082;2023-01-28T04:52:23;97462.38;;;-0.55;87.41
6668;BME280;3370;47.712;9.082;2023-01-28T04:54:49;97456.50;;;-0.53;87.12
6668;BME280;3370;47.712;9.082;2023-01-28T04:57:14;97459.03;;;-0.51;87.50
6668;BME280;3370;47.712;9.082;2023-01-28T04:59:41;97453.97;;;-0.51;86.97
6668;BME280;3370;47.712;9.082;2023-01-28T05:02:07;97463.25;;;-0.52;87.00
6668;BME280;3370;47.712;9.082;2023-01-28T05:04:32;97464.91;;;-0.57;87.15
6668;BME280;3370;47.712;9.082;2023-01-28T05:06:58;97466.59;;;-0.51;86.73
6668;BME280;3370;47.712;9.082;2023-01-28T05:09:24;97470.84;;;-0.44;86.85
6668;BME280;3370;47.712;9.082;2023-01-28T05:11:50;97470.84;;;-0.50;86.89
6668;BME280;3370;47.712;9.082;2023-01-28T05:14:15;97480.09;;;-0.49;86.58
6668;BME280;3370;47.712;9.082;2023-01-28T05:16:41;97474.97;;;-0.60;87.27
6668;BME280;3370;47.712;9.082;2023-01-28T05:19:07;97485.88;;;-0.66;87.96
6668;BME280;3370;47.712;9.082;2023-01-28T05:21:33;97485.06;;;-0.66;87.91
6668;BME280;3370;47.712;9.082;2023-01-28T05:23:59;97490.06;;;-0.71;88.37
6668;BME280;3370;47.712;9.082;2023-01-28T05:26:25;97496.03;;;-0.63;88.47
6668;BME280;3370;47.712;9.082;2023-01-28T05:28:50;97498.53;;;-0.64;87.98
6668;BME280;3370;47.712;9.082;2023-01-28T05:31:16;97496.84;;;-0.62;88.40
6668;BME280;3370;47.712;9.082;2023-01-28T05:33:42;97501.97;;;-0.56;88.19
6668;BME280;3370;47.712;9.082;2023-01-28T05:36:08;97501.09;;;-0.60;88.13
6668;BME280;3370;47.712;9.082;2023-01-28T05:38:34;97497.72;;;-0.62;88.58
6668;BME280;3370;47.712;9.082;2023-01-28T05:41:00;97501.91;;;-0.62;88.75
6668;BME280;3370;47.712;9.082;2023-01-28T05:43:25;97501.06;;;-0.64;88.78
6668;BME280;3370;47.712;9.082;2023-01-28T05:45:51;97504.41;;;-0.64;89.01
6668;BME280;3370;47.712;9.082;2023-01-28T05:48:17;97508.63;;;-0.64;89.04
6668;BME280;3370;47.712;9.082;2023-01-28T05:50:45;97505.31;;;-0.62;88.90
6668;BME280;3370;47.712;9.082;2023-01-28T05:53:11;97501.13;;;-0.53;88.33
6668;BME280;3370;47.712;9.082;2023-01-28T05:55:37;97506.16;;;-0.56;88.29
6668;BME280;3370;47.712;9.082;2023-01-28T05:58:03;97507.78;;;-0.65;88.99
6668;BME280;3370;47.712;9.082;2023-01-28T06:00:28;97514.53;;;-0.64;89.49
6668;BME280;3370;47.712;9.082;2023-01-28T06:02:54;97510.28;;;-0.68;89.75
6668;BME280;3370;47.712;9.082;2023-01-28T06:05:20;97517.03;;;-0.64;89.51
6668;BME280;3370;47.712;9.082;2023-01-28T06:07:47;97518.72;;;-0.67;89.29
6668;BME280;3370;47.712;9.082;2023-01-28T06:10:13;97522.09;;;-0.64;89.27
6668;BME280;3370;47.712;9.082;2023-01-28T06:12:41;97522.94;;;-0.65;89.52
6668;BME280;3370;47.712;9.082;2023-01-28T06:15:08;97521.28;;;-0.61;89.09
6668;BME280;3370;47.712;9.082;2023-01-28T06:17:34;97518.78;;;-0.61;88.82
6668;BME280;3370;47.712;9.082;2023-01-28T06:20:00;97528.88;;;-0.61;88.89
6668;BME280;3370;47.712;9.082;2023-01-28T06:22:26;97531.38;;;-0.63;88.74
6668;BME280;3370;47.712;9.082;2023-01-28T06:24:51;97533.09;;;-0.59;88.49
6668;BME280;3370;47.712;9.082;2023-01-28T06:27:17;97533.09;;;-0.59;88.42
6668;BME280;3370;47.712;9.082;2023-01-28T06:29:43;97531.41;;;-0.60;88.50
6668;BME280;3370;47.712;9.082;2023-01-28T06:32:09;97536.47;;;-0.60;88.27
6668;BME280;3370;47.712;9.082;2023-01-28T06:34:34;97527.22;;;-0.57;88.35
6668;BME280;3370;47.712;9.082;2023-01-28T06:37:01;97533.94;;;-0.55;88.18
6668;BME280;3370;47.712;9.082;2023-01-28T06:39:29;97534.78;;;-0.57;87.91
6668;BME280;3370;47.712;9.082;2023-01-28T06:41:57;97537.31;;;-0.56;87.54
6668;BME280;3370;47.712;9.082;2023-01-28T06:44:23;97539.84;;;-0.57;87.46
6668;BME280;3370;47.712;9.082;2023-01-28T06:46:49;97539.00;;;-0.60;87.80
6668;BME280;3370;47.712;9.082;2023-01-28T06:49:15;97548.25;;;-0.59;87.73
6668;BME280;3370;47.712;9.082;2023-01-28T06:51:40;97554.13;;;-0.63;88.17
6668;BME280;3370;47.712;9.082;2023-01-28T06:54:06;97546.53;;;-0.63;88.12
6668;BME280;3370;47.712;9.082;2023-01-28T06:56:32;97552.44;;;-0.61;88.04
6668;BME280;3370;47.712;9.082;2023-01-28T06:58:58;97549.88;;;-0.64;88.66
6668;BME280;3370;47.712;9.082;2023-01-28T07:01:24;97549.94;;;-0.54;88.21
6668;BME280;3370;47.712;9.082;2023-01-28T07:03:50;97556.66;;;-0.60;87.99
6668;BME280;3370;47.712;9.082;2023-01-28T07:06:15;97562.56;;;-0.59;88.34
6668;BME280;3370;47.712;9.082;2023-01-28T07:08:41;97557.50;;;-0.59;88.26
6668;BME280;3370;47.712;9.082;2023-01-28T07:11:07;97556.63;;;-0.63;88.52
6668;BME280;3370;47.712;9.082;2023-01-28T07:13:34;97565.91;;;-0.59;88.29
6668;BME280;3370;47.712;9.082;2023-01-28T07:16:00;97570.16;;;-0.57;88.21
6668;BME280;3370;47.712;9.082;2023-01-28T07:18:25;97571.03;;;-0.54;87.45
6668;BME280;3370;47.712;9.082;2023-01-28T07:20:51;97574.41;;;-0.47;87.19
6668;BME280;3370;47.712;9.082;2023-01-28T07:23:17;97573.56;;;-0.49;86.60
6668;BME280;3370;47.712;9.082;2023-01-28T07:25:43;97575.25;;;-0.51;86.27
6668;BME280;3370;47.712;9.082;2023-01-28T07:28:09;97575.22;;;-0.53;86.61
6668;BME280;3370;47.712;9.082;2023-01-28T07:30:36;97572.75;;;-0.48;86.46
6668;BME280;3370;47.712;9.082;2023-01-28T07:33:02;97575.28;;;-0.48;85.69
6668;BME280;3370;47.712;9.082;2023-01-28T07:35:28;97573.63;;;-0.43;85.03
6668;BME280;3370;47.712;9.082;2023-01-28T07:37:57;97577.88;;;-0.37;84.45
6668;BME280;3370;47.712;9.082;2023-01-28T07:40:24;97580.34;;;-0.42;84.19
6668;BME280;3370;47.712;9.082;2023-01-28T07:42:51;97582.09;;;-0.38;83.65
6668;BME280;3370;47.712;9.082;2023-01-28T07:45:18;97584.56;;;-0.43;84.07
6668;BME280;3370;47.712;9.082;2023-01-28T07:47:43;97588.81;;;-0.37;83.65
6668;BME280;3370;47.712;9.082;2023-01-28T07:50:10;97587.13;;;-0.35;83.22
6668;BME280;3370;47.712;9.082;2023-01-28T07:52:37;97586.28;;;-0.37;83.06
6668;BME280;3370;47.712;9.082;2023-01-28T07:55:10;97590.47;;;-0.42;83.51
6668;BME280;3370;47.712;9.082;2023-01-28T07:57:57;97594.66;;;-0.44;84.03
6668;BME280;3370;47.712;9.082;2023-01-28T08:00:26;97592.97;;;-0.42;83.96
6668;BME280;3370;47.712;9.082;2023-01-28T08:02:58;97607.41;;;-0.29;83.13
6668;BME280;3370;47.712;9.082;2023-01-28T08:05:32;97599.81;;;-0.32;83.44
6668;BME280;3370;47.712;9.082;2023-01-28T08:08:01;97600.63;;;-0.36;83.29
6668;BME280;3370;47.712;9.082;2023-01-28T08:10:27;97608.22;;;-0.33;83.41
6668;BME280;3370;47.712;9.082;2023-01-28T08:12:57;97609.09;;;-0.26;83.09
6668;BME280;3370;47.712;9.082;2023-01-28T08:15:24;97609.94;;;-0.29;83.22
6668;BME280;3370;47.712;9.082;2023-01-28T08:17:52;97613.25;;;-0.33;83.12
6668;BME280;3370;47.712;9.082;2023-01-28T08:20:18;97619.25;;;-0.23;82.67
6668;BME280;3370;47.712;9.082;2023-01-28T08:22:44;97623.50;;;-0.17;82.26
6668;BME280;3370;47.712;9.082;2023-01-28T08:25:10;97616.84;;;-0.05;81.54
6668;BME280;3370;47.712;9.082;2023-01-28T08:27:36;97620.25;;;0.07;80.39
6668;BME280;3370;47.712;9.082;2023-01-28T08:30:02;97620.25;;;0.05;80.80
6668;BME280;3370;47.712;9.082;2023-01-28T08:32:29;97615.25;;;0.13;80.11
6668;BME280;3370;47.712;9.082;2023-01-28T08:34:55;97621.19;;;0.16;79.79
6668;BME280;3370;47.712;9.082;2023-01-28T08:37:22;97617.78;;;0.11;79.19
6668;BME280;3370;47.712;9.082;2023-01-28T08:39:48;97626.16;;;0.07;79.33
6668;BME280;3370;47.712;9.082;2023-01-28T08:42:14;97627.88;;;0.11;79.29
6668;BME280;3370;47.712;9.082;2023-01-28T08:44:40;97627.88;;;0.14;78.75
6668;BME280;3370;47.712;9.082;2023-01-28T08:47:06;97626.25;;;0.16;78.29
6668;BME280;3370;47.712;9.082;2023-01-28T08:49:31;97625.41;;;0.25;78.53
6668;BME280;3370;47.712;9.082;2023-01-28T08:51:57;97637.22;;;0.25;77.90
6668;BME280;3370;47.712;9.082;2023-01-28T08:54:23;97622.91;;;0.24;78.01
6668;BME280;3370;47.712;9.082;2023-01-28T08:56:49;97633.84;;;0.24;77.02
6668;BME280;3370;47.712;9.082;2023-01-28T08:59:16;97633.00;;;0.21;77.36
6668;BME280;3370;47.712;9.082;2023-01-28T09:01:43;97641.41;;;0.15;77.74
6668;BME280;3370;47.712;9.082;2023-01-28T09:04:08;97636.31;;;0.13;77.70
6668;BME280;3370;47.712;9.082;2023-01-28T09:06:34;97632.97;;;0.17;77.18
6668;BME280;3370;47.712;9.082;2023-01-28T09:09:01;97636.34;;;0.16;77.63
6668;BME280;3370;47.712;9.082;2023-01-28T09:11:28;97642.22;;;0.12;76.88
6668;BME280;3370;47.712;9.082;2023-01-28T09:13:56;97648.16;;;0.17;76.65
6668;BME280;3370;47.712;9.082;2023-01-28T09:16:22;97634.66;;;0.22;75.96
6668;BME280;3370;47.712;9.082;2023-01-28T09:18:48;97639.81;;;0.35;75.17
6668;BME280;3370;47.712;9.082;2023-01-28T09:21:13;97644.91;;;0.40;74.83
6668;BME280;3370;47.712;9.082;2023-01-28T09:23:39;97643.16;;;0.34;74.54
6668;BME280;3370;47.712;9.082;2023-01-28T09:26:06;97643.19;;;0.39;74.48
6668;BME280;3370;47.712;9.082;2023-01-28T09:28:34;97649.06;;;0.30;74.60
6668;BME280;3370;47.712;9.082;2023-01-28T09:33:28;97643.31;;;0.61;75.05
6668;BME280;3370;47.712;9.082;2023-01-28T09:35:54;97647.59;;;0.83;73.21
6668;BME280;3370;47.712;9.082;2023-01-28T09:38:20;97646.78;;;0.87;72.50
6668;BME280;3370;47.712;9.082;2023-01-28T09:40:46;97651.88;;;1.04;72.22
6668;BME280;3370;47.712;9.082;2023-01-28T09:46:04;97656.97;;;1.18;71.31
6668;BME280;3370;47.712;9.082;2023-01-28T09:48:44;97664.56;;;1.13;70.86
6668;BME280;3370;47.712;9.082;2023-01-28T09:51:44;97656.06;;;0.98;71.94
6668;BME280;3370;47.712;9.082;2023-01-28T10:00:18;97667.03;;;0.87;72.57
6668;BME280;3370;47.712;9.082;2023-01-28T10:02:49;97668.72;;;0.88;72.75
6668;BME280;3370;47.712;9.082;2023-01-28T10:09:11;97672.09;;;0.87;72.23
6668;BME280;3370;47.712;9.082;2023-01-28T10:17:46;97648.50;;;1.01;72.40
6668;BME280;3370;47.712;9.082;2023-01-28T10:22:51;97651.88;;;1.12;72.13
6668;BME280;3370;47.712;9.082;2023-01-28T10:25:26;97645.19;;;1.42;72.02
6668;BME280;3370;47.712;9.082;2023-01-28T10:27:53;97643.50;;;1.67;69.98
6668;BME280;3370;47.712;9.082;2023-01-28T10:30:24;97641.78;;;1.61;69.06
6668;BME280;3370;47.712;9.082;2023-01-28T10:32:56;97649.41;;;1.41;70.08
6668;BME280;3370;47.712;9.082;2023-01-28T10:35:24;97652.78;;;1.31;70.56
6668;BME280;3370;47.712;9.082;2023-01-28T10:37:59;97648.53;;;1.22;71.26
6668;BME280;3370;47.712;9.082;2023-01-28T10:40:27;97650.22;;;1.17;71.38
6668;BME280;3370;47.712;9.082;2023-01-28T10:42:53;97651.06;;;1.13;71.41
6668;BME280;3370;47.712;9.082;2023-01-28T10:45:40;97651.03;;;1.07;71.75
6668;BME280;3370;47.712;9.082;2023-01-28T10:48:32;97650.19;;;1.05;71.97
6668;BME280;3370;47.712;9.082;2023-01-28T10:51:01;97640.03;;;1.03;72.20
6668;BME280;3370;47.712;9.082;2023-01-28T10:53:43;97646.75;;;0.90;72.94
6668;BME280;3370;47.712;9.082;2023-01-28T10:56:31;97649.31;;;0.87;73.72
6668;BME280;3370;47.712;9.082;2023-01-28T10:59:02;97647.59;;;0.92;73.19
6668;BME280;3370;47.712;9.082;2023-01-28T11:01:48;97650.16;;;0.92;73.11
6668;BME280;3370;47.712;9.082;2023-01-28T11:04:33;97648.50;;;0.94;73.17
6668;BME280;3370;47.712;9.082;2023-01-28T11:09:34;97652.69;;;0.88;73.10
6668;BME280;3370;47.712;9.082;2023-01-28T11:12:24;97665.31;;;0.83;73.67
6668;BME280;3370;47.712;9.082;2023-01-28T11:15:04;97659.44;;;0.87;74.30
6668;BME280;3370;47.712;9.082;2023-01-28T11:17:34;97660.25;;;0.86;74.78
6668;BME280;3370;47.712;9.082;2023-01-28T11:20:20;97653.50;;;0.82;74.72
6668;BME280;3370;47.712;9.082;2023-01-28T11:22:48;97657.75;;;0.97;73.50
6668;BME280;3370;47.712;9.082;2023-01-28T11:25:41;97650.19;;;0.99;74.38
6668;BME280;3370;47.712;9.082;2023-01-28T11:28:17;97650.16;;;0.91;74.51
6668;BME280;3370;47.712;9.082;2023-01-28T11:30:50;97650.16;;;0.92;74.68
6668;BME280;3370;47.712;9.082;2023-01-28T11:33:21;97644.22;;;0.90;75.16
6668;BME280;3370;47.712;9.082;2023-01-28T11:36:15;97643.41;;;0.91;75.01
6668;BME280;3370;47.712;9.082;2023-01-28T11:39:14;97644.22;;;0.89;75.14
6668;BME280;3370;47.712;9.082;2023-01-28T11:41:41;97645.09;;;0.95;74.97
6668;BME280;3370;47.712;9.082;2023-01-28T11:44:27;97645.06;;;0.86;75.13
6668;BME280;3370;47.712;9.082;2023-01-28T11:47:45;97650.13;;;0.85;76.02
6668;BME280;3370;47.712;9.082;2023-01-28T11:50:35;97639.16;;;0.89;76.08
6668;BME280;3370;47.712;9.082;2023-01-28T11:53:32;97649.31;;;0.92;76.21
6668;BME280;3370;47.712;9.082;2023-01-28T11:56:44;97647.63;;;0.95;76.42
6668;BME280;3370;47.712;9.082;2023-01-28T12:11:17;97638.34;;;0.85;76.50
6668;BME280;3370;47.712;9.082;2023-01-28T12:14:31;97633.28;;;0.85;76.85
6668;BME280;3370;47.712;9.082;2023-01-28T12:20:08;97634.97;;;0.89;76.70
6668;BME280;3370;47.712;9.082;2023-01-28T12:23:06;97631.59;;;0.87;76.85
6668;BME280;3370;47.712;9.082;2023-01-28T12:26:15;97634.97;;;0.95;76.45
6668;BME280;3370;47.712;9.082;2023-01-28T12:29:21;97634.97;;;0.89;76.42
6668;BME280;3370;47.712;9.082;2023-01-28T12:32:24;97630.75;;;0.93;76.45
6668;BME280;3370;47.712;9.082;2023-01-28T12:38:26;97639.22;;;0.98;77.09
6668;BME280;3370;47.712;9.082;2023-01-28T12:41:12;97634.13;;;1.00;76.24
6668;BME280;3370;47.712;9.082;2023-01-28T12:44:34;97642.56;;;0.99;76.40
6668;BME280;3370;47.712;9.082;2023-01-28T12:47:11;97635.00;;;1.02;75.97
6668;BME280;3370;47.712;9.082;2023-01-28T12:49:54;97634.97;;;1.05;76.22
6668;BME280;3370;47.712;9.082;2023-01-28T12:52:33;97635.84;;;1.11;74.97
6668;BME280;3370;47.712;9.082;2023-01-28T12:55:44;97639.22;;;1.10;74.42
6668;BME280;3370;47.712;9.082;2023-01-28T12:58:20;97645.97;;;1.08;74.09
6668;BME280;3370;47.712;9.082;2023-01-28T13:00:55;97637.50;;;1.05;74.12
6668;BME280;3370;47.712;9.082;2023-01-28T13:06:35;97631.63;;;1.09;73.85
6668;BME280;3370;47.712;9.082;2023-01-28T13:09:19;97636.72;;;1.17;73.79
6668;BME280;3370;47.712;9.082;2023-01-28T13:11:49;97637.56;;;1.19;73.78
6668;BME280;3370;47.712;9.082;2023-01-28T13:14:27;97631.66;;;1.27;73.11
6668;BME280;3370;47.712;9.082;2023-01-28T13:16:53;97637.56;;;1.26;73.09
6668;BME280;3370;47.712;9.082;2023-01-28T13:21:45;97643.47;;;1.16;73.37
6668;BME280;3370;47.712;9.082;2023-01-28T13:26:56;97656.13;;;1.18;73.94
6668;BME280;3370;47.712;9.082;2023-01-28T13:31:56;97656.13;;;1.11;74.09
6668;BME280;3370;47.712;9.082;2023-01-28T13:34:40;97642.56;;;1.03;74.09
6668;BME280;3370;47.712;9.082;2023-01-28T13:42:37;97654.38;;;1.01;73.67
6668;BME280;3370;47.712;9.082;2023-01-28T13:45:21;97656.09;;;1.07;72.66
6668;BME280;3370;47.712;9.082;2023-01-28T13:47:57;97658.63;;;1.10;72.20
6668;BME280;3370;47.712;9.082;2023-01-28T13:50:36;97658.63;;;1.04;72.54
6668;BME280;3370;47.712;9.082;2023-01-28T13:53:43;97665.38;;;0.99;72.44
6668;BME280;3370;47.712;9.082;2023-01-28T13:56:25;97669.56;;;0.90;73.35
6668;BME280;3370;47.712;9.082;2023-01-28T14:05:55;97683.06;;;0.92;73.65
6668;BME280;3370;47.712;9.082;2023-01-28T14:14:38;97692.34;;;0.90;73.72
6668;BME280;3370;47.712;9.082;2023-01-28T14:17:43;97685.59;;;0.86;74.19
6668;BME280;3370;47.712;9.082;2023-01-28T14:20:46;97688.13;;;0.89;74.04
6668;BME280;3370;47.712;9.082;2023-01-28T14:23:16;97689.81;;;0.87;74.23
6668;BME280;3370;47.712;9.082;2023-01-28T14:26:03;97688.13;;;0.88;74.61
6668;BME280;3370;47.712;9.082;2023-01-28T14:31:26;97690.63;;;0.83;74.35
6668;BME280;3370;47.712;9.082;2023-01-28T14:33:54;97704.16;;;0.85;74.16
6668;BME280;3370;47.712;9.082;2023-01-28T14:36:22;97704.97;;;0.80;73.90
6668;BME280;3370;47.712;9.082;2023-01-28T14:38:48;97693.19;;;0.88;74.17
6668;BME280;3370;47.712;9.082;2023-01-28T14:41:25;97698.25;;;0.86;73.85
6668;BME280;3370;47.712;9.082;2023-01-28T14:43:53;97703.31;;;0.94;73.40
6668;BME280;3370;47.712;9.082;2023-01-28T14:46:43;97700.78;;;0.92;73.49
6668;BME280;3370;47.712;9.082;2023-01-28T14:50:21;97703.34;;;0.91;73.48
6668;BME280;3370;47.712;9.082;2023-01-28T14:56:04;97714.28;;;0.85;73.45
6668;BME280;3370;47.712;9.082;2023-01-28T14:58:49;97722.72;;;0.84;73.80
6668;BME280;3370;47.712;9.082;2023-01-28T15:01:28;97721.88;;;0.84;73.67
6668;BME280;3370;47.712;9.082;2023-01-28T15:03:54;97725.25;;;0.90;73.00
6668;BME280;3370;47.712;9.082;2023-01-28T15:06:34;97721.91;;;0.96;73.36
6668;BME280;3370;47.712;9.082;2023-01-28T15:09:10;97732.06;;;0.99;73.05
6668;BME280;3370;47.712;9.082;2023-01-28T15:11:40;97720.19;;;0.86;73.65
6668;BME280;3370;47.712;9.082;2023-01-28T15:14:25;97721.94;;;0.99;73.00
6668;BME280;3370;47.712;9.082;2023-01-28T15:16:52;97728.66;;;0.94;73.10
6668;BME280;3370;47.712;9.082;2023-01-28T15:19:28;97728.63;;;0.85;73.56
6668;BME280;3370;47.712;9.082;2023-01-28T15:22:04;97728.59;;;0.79;74.02
6668;BME280;3370;47.712;9.082;2023-01-28T15:24:33;97730.25;;;0.73;74.40
6668;BME280;3370;47.712;9.082;2023-01-28T15:27:00;97728.63;;;0.80;73.76
6668;BME280;3370;47.712;9.082;2023-01-28T15:29:33;97737.03;;;0.77;73.46
6668;BME280;3370;47.712;9.082;2023-01-28T15:32:00;97737.03;;;0.79;73.43
6668;BME280;3370;47.712;9.082;2023-01-28T15:34:27;97742.91;;;0.72;73.51
6668;BME280;3370;47.712;9.082;2023-01-28T15:36:59;97738.69;;;0.69;73.45
6668;BME280;3370;47.712;9.082;2023-01-28T15:39:27;97739.53;;;0.70;72.94
6668;BME280;3370;47.712;9.082;2023-01-28T15:42:00;97743.75;;;0.69;72.98
6668;BME280;3370;47.712;9.082;2023-01-28T15:44:37;97743.75;;;0.74;72.67